sensor_id;sensor_type;location;lat;lon;timestamp;P1;durP1;ratioP1;P2;durP2;ratioP2
59263;SDS011;45030;42.720;23.344;2022-10-31T00:01:12;7.32;;;4.38;;
59263;SDS011;45030;42.720;23.344;2022-10-31T00:03:38;7.18;;;5.38;;
59263;SDS011;45030;42.720;23.344;2022-10-31T00:06:03;6.95;;;4.60;;
59263;SDS011;45030;42.720;23.344;2022-10-31T00:08:28;7.47;;;4.55;;
59263;SDS011;45030;42.720;23.344;2022-10-31T00:10:53;6.15;;;4.22;;
59263;SDS011;45030;42.720;23.344;2022-10-31T00:13:19;6.55;;;4.38;;
59263;SDS011;45030;42.720;23.344;2022-10-31T00:15:44;8.65;;;4.25;;
59263;SDS011;45030;42.720;23.344;2022-10-31T00:18:10;8.45;;;4.10;;
59263;SDS011;45030;42.720;23.344;2022-10-31T00:20:35;9.93;;;4.97;;
59263;SDS011;45030;42.720;23.344;2022-10-31T00:23:01;10.75;;;6.50;;
59263;SDS011;45030;42.720;23.344;2022-10-31T00:25:27;12.55;;;6.25;;
59263;SDS011;45030;42.720;23.344;2022-10-31T00:27:52;13.02;;;6.57;;
59263;SDS011;45030;42.720;23.344;2022-10-31T00:30:17;13.52;;;6.18;;
59263;SDS011;45030;42.720;23.344;2022-10-31T00:32:43;11.00;;;6.70;;
59263;SDS011;45030;42.720;23.344;2022-10-31T00:35:08;11.77;;;7.35;;
59263;SDS011;45030;42.720;23.344;2022-10-31T00:37:33;12.55;;;7.72;;
59263;SDS011;45030;42.720;23.344;2022-10-31T00:39:58;14.90;;;8.35;;
59263;SDS011;45030;42.720;23.344;2022-10-31T00:42:24;10.55;;;6.80;;
59263;SDS011;45030;42.720;23.344;2022-10-31T00:44:49;14.38;;;7.78;;
59263;SDS011;45030;42.720;23.344;2022-10-31T00:47:14;11.50;;;7.05;;
59263;SDS011;45030;42.720;23.344;2022-10-31T00:49:39;13.90;;;8.13;;
59263;SDS011;45030;42.720;23.344;2022-10-31T00:52:04;17.90;;;8.60;;
59263;SDS011;45030;42.720;23.344;2022-10-31T00:54:30;14.38;;;8.27;;
59263;SDS011;45030;42.720;23.344;2022-10-31T00:56:56;14.43;;;8.13;;
59263;SDS011;45030;42.720;23.344;2022-10-31T00:59:21;13.18;;;7.97;;
59263;SDS011;45030;42.720;23.344;2022-10-31T01:01:46;14.95;;;8.18;;
59263;SDS011;45030;42.720;23.344;2022-10-31T01:04:11;16.00;;;8.68;;
59263;SDS011;45030;42.720;23.344;2022-10-31T01:06:37;13.15;;;7.45;;
59263;SDS011;45030;42.720;23.344;2022-10-31T01:09:02;12.00;;;7.60;;
59263;SDS011;45030;42.720;23.344;2022-10-31T01:11:27;11.63;;;7.85;;
59263;SDS011;45030;42.720;23.344;2022-10-31T01:13:53;11.85;;;7.28;;
59263;SDS011;45030;42.720;23.344;2022-10-31T01:16:20;11.50;;;7.65;;
59263;SDS011;45030;42.720;23.344;2022-10-31T01:18:45;13.68;;;7.70;;
59263;SDS011;45030;42.720;23.344;2022-10-31T01:23:36;11.60;;;7.30;;
59263;SDS011;45030;42.720;23.344;2022-10-31T01:26:03;13.77;;;7.43;;
59263;SDS011;45030;42.720;23.344;2022-10-31T01:28:28;13.35;;;8.50;;
59263;SDS011;45030;42.720;23.344;2022-10-31T01:30:54;13.27;;;7.40;;
59263;SDS011;45030;42.720;23.344;2022-10-31T01:33:19;12.05;;;8.27;;
59263;SDS011;45030;42.720;23.344;2022-10-31T01:35:44;14.25;;;8.27;;
59263;SDS011;45030;42.720;23.344;2022-10-31T01:38:09;12.68;;;8.77;;
59263;SDS011;45030;42.720;23.344;2022-10-31T01:40:35;14.20;;;8.32;;
59263;SDS011;45030;42.720;23.344;2022-10-31T01:43:00;16.48;;;9.27;;
59263;SDS011;45030;42.720;23.344;2022-10-31T01:45:25;20.35;;;9.57;;
59263;SDS011;45030;42.720;23.344;2022-10-31T01:47:50;14.13;;;8.07;;
59263;SDS011;45030;42.720;23.344;2022-10-31T01:50:21;20.02;;;9.45;;
59263;SDS011;45030;42.720;23.344;2022-10-31T01:52:47;20.38;;;9.88;;
59263;SDS011;45030;42.720;23.344;2022-10-31T01:55:17;17.63;;;10.05;;
59263;SDS011;45030;42.720;23.344;2022-10-31T01:57:44;18.02;;;9.73;;
59263;SDS011;45030;42.720;23.344;2022-10-31T02:00:10;14.05;;;9.15;;
59263;SDS011;45030;42.720;23.344;2022-10-31T02:02:36;15.20;;;9.25;;
59263;SDS011;45030;42.720;23.344;2022-10-31T02:05:02;13.93;;;8.93;;
59263;SDS011;45030;42.720;23.344;2022-10-31T02:08:11;14.93;;;8.18;;
59263;SDS011;45030;42.720;23.344;2022-10-31T02:10:16;15.18;;;7.85;;
59263;SDS011;45030;42.720;23.344;2022-10-31T02:12:43;14.13;;;8.05;;
59263;SDS011;45030;42.720;23.344;2022-10-31T02:15:09;14.13;;;8.73;;
59263;SDS011;45030;42.720;23.344;2022-10-31T02:17:35;15.10;;;8.80;;
59263;SDS011;45030;42.720;23.344;2022-10-31T02:27:53;12.10;;;8.13;;
59263;SDS011;45030;42.720;23.344;2022-10-31T02:30:22;14.05;;;8.30;;
59263;SDS011;45030;42.720;23.344;2022-10-31T02:38:02;12.68;;;8.07;;
59263;SDS011;45030;42.720;23.344;2022-10-31T02:40:33;15.65;;;8.82;;
59263;SDS011;45030;42.720;23.344;2022-10-31T02:43:12;14.45;;;9.68;;
59263;SDS011;45030;42.720;23.344;2022-10-31T02:48:18;18.52;;;10.00;;
59263;SDS011;45030;42.720;23.344;2022-10-31T02:50:45;17.52;;;10.57;;
59263;SDS011;45030;42.720;23.344;2022-10-31T02:53:14;16.40;;;9.60;;
59263;SDS011;45030;42.720;23.344;2022-10-31T02:55:44;15.70;;;9.10;;
59263;SDS011;45030;42.720;23.344;2022-10-31T02:58:13;13.90;;;9.98;;
59263;SDS011;45030;42.720;23.344;2022-10-31T03:00:49;15.95;;;9.50;;
59263;SDS011;45030;42.720;23.344;2022-10-31T03:15:46;16.08;;;9.95;;
59263;SDS011;45030;42.720;23.344;2022-10-31T03:18:30;13.18;;;8.95;;
59263;SDS011;45030;42.720;23.344;2022-10-31T03:23:34;14.55;;;9.63;;
59263;SDS011;45030;42.720;23.344;2022-10-31T03:26:01;23.10;;;11.75;;
59263;SDS011;45030;42.720;23.344;2022-10-31T03:28:30;20.80;;;11.05;;
59263;SDS011;45030;42.720;23.344;2022-10-31T03:30:56;18.40;;;9.93;;
59263;SDS011;45030;42.720;23.344;2022-10-31T03:33:24;17.30;;;9.65;;
59263;SDS011;45030;42.720;23.344;2022-10-31T03:35:51;15.00;;;9.93;;
59263;SDS011;45030;42.720;23.344;2022-10-31T03:38:18;17.10;;;9.52;;
59263;SDS011;45030;42.720;23.344;2022-10-31T03:40:44;16.80;;;9.70;;
59263;SDS011;45030;42.720;23.344;2022-10-31T03:43:12;14.23;;;9.73;;
59263;SDS011;45030;42.720;23.344;2022-10-31T03:45:40;14.25;;;9.80;;
59263;SDS011;45030;42.720;23.344;2022-10-31T03:48:06;15.23;;;9.88;;
59263;SDS011;45030;42.720;23.344;2022-10-31T03:50:35;16.85;;;11.32;;
59263;SDS011;45030;42.720;23.344;2022-10-31T03:53:04;21.70;;;12.57;;
59263;SDS011;45030;42.720;23.344;2022-10-31T03:55:41;18.10;;;12.30;;
59263;SDS011;45030;42.720;23.344;2022-10-31T03:58:24;13.85;;;9.30;;
59263;SDS011;45030;42.720;23.344;2022-10-31T04:00:51;13.82;;;9.55;;
59263;SDS011;45030;42.720;23.344;2022-10-31T04:03:22;14.90;;;10.32;;
59263;SDS011;45030;42.720;23.344;2022-10-31T04:05:49;15.70;;;9.95;;
59263;SDS011;45030;42.720;23.344;2022-10-31T04:08:17;15.02;;;10.32;;
59263;SDS011;45030;42.720;23.344;2022-10-31T04:10:43;15.90;;;10.63;;
59263;SDS011;45030;42.720;23.344;2022-10-31T04:13:10;16.05;;;10.60;;
59263;SDS011;45030;42.720;23.344;2022-10-31T04:15:36;16.65;;;10.88;;
59263;SDS011;45030;42.720;23.344;2022-10-31T04:18:03;15.63;;;11.30;;
59263;SDS011;45030;42.720;23.344;2022-10-31T04:20:30;17.75;;;11.63;;
59263;SDS011;45030;42.720;23.344;2022-10-31T04:22:55;18.70;;;11.00;;
59263;SDS011;45030;42.720;23.344;2022-10-31T04:25:20;21.48;;;12.88;;
59263;SDS011;45030;42.720;23.344;2022-10-31T04:27:46;27.67;;;15.48;;
59263;SDS011;45030;42.720;23.344;2022-10-31T04:30:11;23.98;;;14.98;;
59263;SDS011;45030;42.720;23.344;2022-10-31T04:32:36;48.47;;;23.63;;
59263;SDS011;45030;42.720;23.344;2022-10-31T04:35:02;36.15;;;19.20;;
59263;SDS011;45030;42.720;23.344;2022-10-31T04:37:27;29.35;;;17.83;;
59263;SDS011;45030;42.720;23.344;2022-10-31T04:39:52;26.85;;;16.25;;
59263;SDS011;45030;42.720;23.344;2022-10-31T04:42:17;23.30;;;13.82;;
59263;SDS011;45030;42.720;23.344;2022-10-31T04:44:42;22.63;;;15.75;;
59263;SDS011;45030;42.720;23.344;2022-10-31T04:47:08;22.88;;;16.15;;
59263;SDS011;45030;42.720;23.344;2022-10-31T04:49:33;22.02;;;15.32;;
59263;SDS011;45030;42.720;23.344;2022-10-31T04:51:58;23.02;;;14.70;;
59263;SDS011;45030;42.720;23.344;2022-10-31T04:54:23;20.27;;;12.30;;
59263;SDS011;45030;42.720;23.344;2022-10-31T04:56:49;19.42;;;12.13;;
59263;SDS011;45030;42.720;23.344;2022-10-31T04:59:14;14.98;;;11.77;;
59263;SDS011;45030;42.720;23.344;2022-10-31T05:01:39;16.92;;;10.63;;
59263;SDS011;45030;42.720;23.344;2022-10-31T05:04:04;16.60;;;10.52;;
59263;SDS011;45030;42.720;23.344;2022-10-31T05:06:30;15.60;;;10.30;;
59263;SDS011;45030;42.720;23.344;2022-10-31T05:08:55;18.48;;;11.35;;
59263;SDS011;45030;42.720;23.344;2022-10-31T05:11:20;17.13;;;11.73;;
59263;SDS011;45030;42.720;23.344;2022-10-31T05:13:45;16.90;;;10.93;;
59263;SDS011;45030;42.720;23.344;2022-10-31T05:16:11;20.52;;;11.45;;
59263;SDS011;45030;42.720;23.344;2022-10-31T05:18:36;26.60;;;16.23;;
59263;SDS011;45030;42.720;23.344;2022-10-31T05:21:01;25.25;;;15.60;;
59263;SDS011;45030;42.720;23.344;2022-10-31T05:23:26;20.63;;;14.30;;
59263;SDS011;45030;42.720;23.344;2022-10-31T05:25:51;24.13;;;15.80;;
59263;SDS011;45030;42.720;23.344;2022-10-31T05:28:17;25.75;;;13.52;;
59263;SDS011;45030;42.720;23.344;2022-10-31T05:30:42;27.30;;;16.38;;
59263;SDS011;45030;42.720;23.344;2022-10-31T05:33:07;21.90;;;15.00;;
59263;SDS011;45030;42.720;23.344;2022-10-31T05:35:32;19.35;;;13.85;;
59263;SDS011;45030;42.720;23.344;2022-10-31T05:37:58;22.02;;;13.75;;
59263;SDS011;45030;42.720;23.344;2022-10-31T05:40:24;24.35;;;13.82;;
59263;SDS011;45030;42.720;23.344;2022-10-31T05:42:53;19.70;;;12.52;;
59263;SDS011;45030;42.720;23.344;2022-10-31T05:45:19;19.15;;;12.30;;
59263;SDS011;45030;42.720;23.344;2022-10-31T05:47:52;23.80;;;13.43;;
59263;SDS011;45030;42.720;23.344;2022-10-31T05:50:17;21.15;;;12.15;;
59263;SDS011;45030;42.720;23.344;2022-10-31T05:52:42;26.38;;;15.18;;
59263;SDS011;45030;42.720;23.344;2022-10-31T05:55:08;19.88;;;13.50;;
59263;SDS011;45030;42.720;23.344;2022-10-31T05:57:33;20.17;;;12.27;;
59263;SDS011;45030;42.720;23.344;2022-10-31T05:59:59;23.25;;;12.32;;
59263;SDS011;45030;42.720;23.344;2022-10-31T06:02:24;26.33;;;13.45;;
59263;SDS011;45030;42.720;23.344;2022-10-31T06:04:50;25.70;;;12.75;;
59263;SDS011;45030;42.720;23.344;2022-10-31T06:07:15;19.33;;;12.30;;
59263;SDS011;45030;42.720;23.344;2022-10-31T06:09:40;25.65;;;13.27;;
59263;SDS011;45030;42.720;23.344;2022-10-31T06:12:05;20.45;;;12.80;;
59263;SDS011;45030;42.720;23.344;2022-10-31T06:14:31;17.48;;;12.05;;
59263;SDS011;45030;42.720;23.344;2022-10-31T06:16:56;17.80;;;10.52;;
59263;SDS011;45030;42.720;23.344;2022-10-31T06:19:21;17.60;;;10.15;;
59263;SDS011;45030;42.720;23.344;2022-10-31T06:21:46;15.55;;;10.60;;
59263;SDS011;45030;42.720;23.344;2022-10-31T06:24:12;16.17;;;9.10;;
59263;SDS011;45030;42.720;23.344;2022-10-31T06:26:37;19.00;;;10.43;;
59263;SDS011;45030;42.720;23.344;2022-10-31T06:29:02;15.82;;;9.93;;
59263;SDS011;45030;42.720;23.344;2022-10-31T06:31:27;17.35;;;9.60;;
59263;SDS011;45030;42.720;23.344;2022-10-31T06:33:53;14.02;;;9.10;;
59263;SDS011;45030;42.720;23.344;2022-10-31T06:36:18;12.73;;;8.80;;
59263;SDS011;45030;42.720;23.344;2022-10-31T06:38:43;17.42;;;10.95;;
59263;SDS011;45030;42.720;23.344;2022-10-31T06:41:08;19.63;;;8.85;;
59263;SDS011;45030;42.720;23.344;2022-10-31T06:43:34;17.90;;;8.88;;
59263;SDS011;45030;42.720;23.344;2022-10-31T06:46:01;19.73;;;10.60;;
59263;SDS011;45030;42.720;23.344;2022-10-31T06:48:27;15.73;;;9.85;;
59263;SDS011;45030;42.720;23.344;2022-10-31T06:50:52;20.90;;;11.45;;
59263;SDS011;45030;42.720;23.344;2022-10-31T06:53:17;19.55;;;10.88;;
59263;SDS011;45030;42.720;23.344;2022-10-31T06:55:42;16.85;;;9.65;;
59263;SDS011;45030;42.720;23.344;2022-10-31T06:58:08;15.27;;;9.13;;
59263;SDS011;45030;42.720;23.344;2022-10-31T07:00:34;22.63;;;9.75;;
59263;SDS011;45030;42.720;23.344;2022-10-31T07:03:03;22.23;;;10.80;;
59263;SDS011;45030;42.720;23.344;2022-10-31T07:05:29;21.73;;;10.82;;
59263;SDS011;45030;42.720;23.344;2022-10-31T07:07:55;25.77;;;11.45;;
59263;SDS011;45030;42.720;23.344;2022-10-31T07:10:21;22.52;;;10.02;;
59263;SDS011;45030;42.720;23.344;2022-10-31T07:12:46;22.02;;;10.10;;
59263;SDS011;45030;42.720;23.344;2022-10-31T07:15:12;14.43;;;8.73;;
59263;SDS011;45030;42.720;23.344;2022-10-31T07:17:37;15.15;;;8.48;;
59263;SDS011;45030;42.720;23.344;2022-10-31T07:20:02;13.40;;;8.90;;
59263;SDS011;45030;42.720;23.344;2022-10-31T07:22:34;16.52;;;8.05;;
59263;SDS011;45030;42.720;23.344;2022-10-31T07:25:00;14.48;;;8.30;;
59263;SDS011;45030;42.720;23.344;2022-10-31T07:27:25;13.48;;;9.30;;
59263;SDS011;45030;42.720;23.344;2022-10-31T07:29:50;14.60;;;9.20;;
59263;SDS011;45030;42.720;23.344;2022-10-31T07:32:15;15.85;;;9.35;;
59263;SDS011;45030;42.720;23.344;2022-10-31T07:34:41;15.98;;;9.15;;
59263;SDS011;45030;42.720;23.344;2022-10-31T07:37:06;13.80;;;10.30;;
59263;SDS011;45030;42.720;23.344;2022-10-31T07:39:31;13.95;;;9.60;;
59263;SDS011;45030;42.720;23.344;2022-10-31T07:41:58;15.23;;;10.00;;
59263;SDS011;45030;42.720;23.344;2022-10-31T07:44:23;20.45;;;10.57;;
59263;SDS011;45030;42.720;23.344;2022-10-31T07:46:48;13.88;;;10.18;;
59263;SDS011;45030;42.720;23.344;2022-10-31T07:49:13;13.85;;;10.18;;
59263;SDS011;45030;42.720;23.344;2022-10-31T07:51:39;15.30;;;10.75;;
59263;SDS011;45030;42.720;23.344;2022-10-31T07:54:04;17.80;;;11.70;;
59263;SDS011;45030;42.720;23.344;2022-10-31T07:56:29;17.40;;;11.10;;
59263;SDS011;45030;42.720;23.344;2022-10-31T07:58:54;16.23;;;10.03;;
59263;SDS011;45030;42.720;23.344;2022-10-31T08:01:19;12.77;;;8.50;;
59263;SDS011;45030;42.720;23.344;2022-10-31T08:03:45;16.15;;;10.73;;
59263;SDS011;45030;42.720;23.344;2022-10-31T08:06:10;20.27;;;12.18;;
59263;SDS011;45030;42.720;23.344;2022-10-31T08:08:35;18.30;;;10.48;;
59263;SDS011;45030;42.720;23.344;2022-10-31T08:11:00;17.58;;;10.70;;
59263;SDS011;45030;42.720;23.344;2022-10-31T08:13:26;17.67;;;10.15;;
59263;SDS011;45030;42.720;23.344;2022-10-31T08:15:51;12.83;;;10.07;;
59263;SDS011;45030;42.720;23.344;2022-10-31T08:18:18;33.50;;;19.75;;
59263;SDS011;45030;42.720;23.344;2022-10-31T08:20:43;20.08;;;11.60;;
59263;SDS011;45030;42.720;23.344;2022-10-31T08:23:09;16.02;;;10.98;;
59263;SDS011;45030;42.720;23.344;2022-10-31T08:25:35;16.58;;;10.32;;
59263;SDS011;45030;42.720;23.344;2022-10-31T08:28:01;15.55;;;9.75;;
59263;SDS011;45030;42.720;23.344;2022-10-31T08:30:27;16.10;;;9.57;;
59263;SDS011;45030;42.720;23.344;2022-10-31T08:33:06;16.83;;;9.88;;
59263;SDS011;45030;42.720;23.344;2022-10-31T08:35:33;14.00;;;9.10;;
59263;SDS011;45030;42.720;23.344;2022-10-31T08:37:58;17.38;;;9.20;;
59263;SDS011;45030;42.720;23.344;2022-10-31T08:40:24;14.68;;;9.93;;
59263;SDS011;45030;42.720;23.344;2022-10-31T08:42:59;17.52;;;10.02;;
59263;SDS011;45030;42.720;23.344;2022-10-31T08:45:24;14.30;;;9.63;;
59263;SDS011;45030;42.720;23.344;2022-10-31T08:47:50;14.05;;;8.88;;
59263;SDS011;45030;42.720;23.344;2022-10-31T08:50:15;17.90;;;9.93;;
59263;SDS011;45030;42.720;23.344;2022-10-31T08:52:40;13.60;;;8.90;;
59263;SDS011;45030;42.720;23.344;2022-10-31T08:55:06;14.40;;;9.70;;
59263;SDS011;45030;42.720;23.344;2022-10-31T08:57:31;15.48;;;8.95;;
59263;SDS011;45030;42.720;23.344;2022-10-31T08:59:56;14.32;;;9.20;;
59263;SDS011;45030;42.720;23.344;2022-10-31T09:02:22;12.87;;;9.03;;
59263;SDS011;45030;42.720;23.344;2022-10-31T09:04:47;17.05;;;9.98;;
59263;SDS011;45030;42.720;23.344;2022-10-31T09:07:12;17.30;;;9.87;;
59263;SDS011;45030;42.720;23.344;2022-10-31T09:09:37;14.75;;;8.73;;
59263;SDS011;45030;42.720;23.344;2022-10-31T09:12:03;11.80;;;8.18;;
59263;SDS011;45030;42.720;23.344;2022-10-31T09:14:28;16.25;;;10.05;;
59263;SDS011;45030;42.720;23.344;2022-10-31T09:16:53;14.77;;;8.63;;
59263;SDS011;45030;42.720;23.344;2022-10-31T09:19:19;12.10;;;8.90;;
59263;SDS011;45030;42.720;23.344;2022-10-31T09:21:44;14.97;;;9.47;;
59263;SDS011;45030;42.720;23.344;2022-10-31T09:24:09;11.77;;;8.77;;
59263;SDS011;45030;42.720;23.344;2022-10-31T09:26:34;12.32;;;8.63;;
59263;SDS011;45030;42.720;23.344;2022-10-31T09:29:00;12.07;;;9.27;;
59263;SDS011;45030;42.720;23.344;2022-10-31T09:31:27;17.98;;;10.02;;
59263;SDS011;45030;42.720;23.344;2022-10-31T09:33:52;14.05;;;8.95;;
59263;SDS011;45030;42.720;23.344;2022-10-31T09:36:17;16.08;;;8.85;;
59263;SDS011;45030;42.720;23.344;2022-10-31T09:38:43;11.60;;;7.60;;
59263;SDS011;45030;42.720;23.344;2022-10-31T09:41:14;15.20;;;8.50;;
59263;SDS011;45030;42.720;23.344;2022-10-31T09:43:47;16.65;;;8.07;;
59263;SDS011;45030;42.720;23.344;2022-10-31T09:49:01;11.75;;;7.90;;
59263;SDS011;45030;42.720;23.344;2022-10-31T09:51:33;14.52;;;7.80;;
59263;SDS011;45030;42.720;23.344;2022-10-31T09:54:00;11.25;;;7.68;;
59263;SDS011;45030;42.720;23.344;2022-10-31T09:56:27;13.20;;;8.32;;
59263;SDS011;45030;42.720;23.344;2022-10-31T09:58:56;12.55;;;7.80;;
59263;SDS011;45030;42.720;23.344;2022-10-31T10:06:44;11.65;;;6.93;;
59263;SDS011;45030;42.720;23.344;2022-10-31T10:09:10;10.63;;;6.53;;
59263;SDS011;45030;42.720;23.344;2022-10-31T10:32:23;11.30;;;5.25;;
59263;SDS011;45030;42.720;23.344;2022-10-31T10:34:50;9.65;;;4.80;;
59263;SDS011;45030;42.720;23.344;2022-10-31T10:37:28;6.57;;;3.90;;
59263;SDS011;45030;42.720;23.344;2022-10-31T10:39:55;7.43;;;3.90;;
59263;SDS011;45030;42.720;23.344;2022-10-31T10:42:21;9.32;;;4.38;;
59263;SDS011;45030;42.720;23.344;2022-10-31T10:45:19;5.40;;;3.85;;
59263;SDS011;45030;42.720;23.344;2022-10-31T10:48:08;7.03;;;4.03;;
59263;SDS011;45030;42.720;23.344;2022-10-31T10:50:36;7.78;;;4.20;;
59263;SDS011;45030;42.720;23.344;2022-10-31T10:53:07;8.93;;;4.65;;
59263;SDS011;45030;42.720;23.344;2022-10-31T10:58:02;6.22;;;3.20;;
59263;SDS011;45030;42.720;23.344;2022-10-31T11:00:44;8.05;;;3.70;;
59263;SDS011;45030;42.720;23.344;2022-10-31T11:03:14;9.07;;;3.60;;
59263;SDS011;45030;42.720;23.344;2022-10-31T11:08:28;9.45;;;4.13;;
59263;SDS011;45030;42.720;23.344;2022-10-31T11:13:23;5.97;;;3.50;;
59263;SDS011;45030;42.720;23.344;2022-10-31T11:15:50;6.95;;;3.92;;
59263;SDS011;45030;42.720;23.344;2022-10-31T11:18:19;4.70;;;2.92;;
59263;SDS011;45030;42.720;23.344;2022-10-31T11:20:50;9.05;;;3.80;;
59263;SDS011;45030;42.720;23.344;2022-10-31T11:23:19;6.22;;;3.15;;
59263;SDS011;45030;42.720;23.344;2022-10-31T11:25:48;7.70;;;3.42;;
59263;SDS011;45030;42.720;23.344;2022-10-31T11:28:13;7.05;;;3.15;;
59263;SDS011;45030;42.720;23.344;2022-10-31T11:30:49;8.90;;;3.40;;
59263;SDS011;45030;42.720;23.344;2022-10-31T11:35:43;7.53;;;3.35;;
59263;SDS011;45030;42.720;23.344;2022-10-31T11:38:12;8.07;;;3.40;;
59263;SDS011;45030;42.720;23.344;2022-10-31T11:40:38;7.35;;;2.92;;
59263;SDS011;45030;42.720;23.344;2022-10-31T11:43:03;5.60;;;3.10;;
59263;SDS011;45030;42.720;23.344;2022-10-31T11:45:32;6.70;;;3.50;;
59263;SDS011;45030;42.720;23.344;2022-10-31T11:47:58;8.75;;;3.53;;
59263;SDS011;45030;42.720;23.344;2022-10-31T11:50:32;5.38;;;3.15;;
59263;SDS011;45030;42.720;23.344;2022-10-31T11:52:58;7.38;;;3.13;;
59263;SDS011;45030;42.720;23.344;2022-10-31T11:55:31;8.27;;;3.47;;
59263;SDS011;45030;42.720;23.344;2022-10-31T11:57:56;6.13;;;2.95;;
59263;SDS011;45030;42.720;23.344;2022-10-31T12:00:23;7.63;;;4.00;;
59263;SDS011;45030;42.720;23.344;2022-10-31T12:02:49;9.55;;;3.13;;
59263;SDS011;45030;42.720;23.344;2022-10-31T12:05:32;7.93;;;3.05;;
59263;SDS011;45030;42.720;23.344;2022-10-31T12:07:58;7.15;;;3.22;;
59263;SDS011;45030;42.720;23.344;2022-10-31T12:10:24;4.70;;;2.92;;
59263;SDS011;45030;42.720;23.344;2022-10-31T12:15:51;7.18;;;3.22;;
59263;SDS011;45030;42.720;23.344;2022-10-31T12:18:24;7.03;;;3.15;;
59263;SDS011;45030;42.720;23.344;2022-10-31T12:21:04;6.10;;;3.10;;
59263;SDS011;45030;42.720;23.344;2022-10-31T12:26:23;6.95;;;3.47;;
59263;SDS011;45030;42.720;23.344;2022-10-31T12:36:43;6.55;;;3.47;;
59263;SDS011;45030;42.720;23.344;2022-10-31T12:54:52;6.80;;;3.20;;
59263;SDS011;45030;42.720;23.344;2022-10-31T13:02:18;8.02;;;3.90;;
59263;SDS011;45030;42.720;23.344;2022-10-31T13:04:47;8.98;;;3.80;;
59263;SDS011;45030;42.720;23.344;2022-10-31T13:07:19;7.47;;;3.45;;
59263;SDS011;45030;42.720;23.344;2022-10-31T13:12:15;4.95;;;2.75;;
59263;SDS011;45030;42.720;23.344;2022-10-31T13:14:44;6.45;;;2.90;;
59263;SDS011;45030;42.720;23.344;2022-10-31T13:17:27;8.05;;;3.40;;
59263;SDS011;45030;42.720;23.344;2022-10-31T13:20:05;8.25;;;3.13;;
59263;SDS011;45030;42.720;23.344;2022-10-31T13:22:33;7.57;;;3.30;;
59263;SDS011;45030;42.720;23.344;2022-10-31T13:25:09;7.00;;;2.40;;
59263;SDS011;45030;42.720;23.344;2022-10-31T13:27:42;7.88;;;2.75;;
59263;SDS011;45030;42.720;23.344;2022-10-31T13:30:15;7.43;;;3.00;;
59263;SDS011;45030;42.720;23.344;2022-10-31T13:32:42;6.93;;;3.10;;
59263;SDS011;45030;42.720;23.344;2022-10-31T13:35:20;5.32;;;2.80;;
59263;SDS011;45030;42.720;23.344;2022-10-31T13:37:49;8.90;;;3.55;;
59263;SDS011;45030;42.720;23.344;2022-10-31T13:45:46;9.20;;;3.00;;
59263;SDS011;45030;42.720;23.344;2022-10-31T13:50:40;7.53;;;3.75;;
59263;SDS011;45030;42.720;23.344;2022-10-31T13:53:10;7.43;;;3.17;;
59263;SDS011;45030;42.720;23.344;2022-10-31T13:58:03;6.22;;;3.08;;
59263;SDS011;45030;42.720;23.344;2022-10-31T14:00:29;8.27;;;3.35;;
59263;SDS011;45030;42.720;23.344;2022-10-31T14:02:59;6.53;;;2.80;;
59263;SDS011;45030;42.720;23.344;2022-10-31T14:05:25;9.88;;;3.17;;
59263;SDS011;45030;42.720;23.344;2022-10-31T14:07:52;7.55;;;3.63;;
59263;SDS011;45030;42.720;23.344;2022-10-31T14:10:26;9.18;;;3.58;;
59263;SDS011;45030;42.720;23.344;2022-10-31T14:12:52;11.15;;;3.80;;
59263;SDS011;45030;42.720;23.344;2022-10-31T14:17:48;12.93;;;3.60;;
59263;SDS011;45030;42.720;23.344;2022-10-31T14:22:39;11.00;;;3.57;;
59263;SDS011;45030;42.720;23.344;2022-10-31T14:27:49;10.90;;;3.83;;
59263;SDS011;45030;42.720;23.344;2022-10-31T14:30:15;11.05;;;3.78;;
59263;SDS011;45030;42.720;23.344;2022-10-31T14:32:40;13.75;;;4.47;;
59263;SDS011;45030;42.720;23.344;2022-10-31T14:35:09;8.32;;;3.28;;
59263;SDS011;45030;42.720;23.344;2022-10-31T14:43:33;10.48;;;3.92;;
59263;SDS011;45030;42.720;23.344;2022-10-31T14:50:40;10.55;;;4.78;;
59263;SDS011;45030;42.720;23.344;2022-10-31T14:53:08;13.68;;;4.63;;
59263;SDS011;45030;42.720;23.344;2022-10-31T14:55:39;16.17;;;5.43;;
59263;SDS011;45030;42.720;23.344;2022-10-31T14:58:06;25.35;;;4.88;;
59263;SDS011;45030;42.720;23.344;2022-10-31T15:00:32;32.67;;;6.07;;
59263;SDS011;45030;42.720;23.344;2022-10-31T15:05:23;19.90;;;4.30;;
59263;SDS011;45030;42.720;23.344;2022-10-31T15:07:52;14.00;;;5.55;;
59263;SDS011;45030;42.720;23.344;2022-10-31T15:10:19;15.77;;;3.75;;
59263;SDS011;45030;42.720;23.344;2022-10-31T15:12:45;19.00;;;5.20;;
59263;SDS011;45030;42.720;23.344;2022-10-31T15:15:14;13.25;;;4.63;;
59263;SDS011;45030;42.720;23.344;2022-10-31T15:17:44;12.93;;;4.88;;
59263;SDS011;45030;42.720;23.344;2022-10-31T15:20:16;26.45;;;5.47;;
59263;SDS011;45030;42.720;23.344;2022-10-31T15:22:42;14.53;;;4.10;;
59263;SDS011;45030;42.720;23.344;2022-10-31T15:25:20;11.23;;;4.80;;
59263;SDS011;45030;42.720;23.344;2022-10-31T15:27:46;10.32;;;4.97;;
59263;SDS011;45030;42.720;23.344;2022-10-31T15:32:44;21.98;;;8.15;;
59263;SDS011;45030;42.720;23.344;2022-10-31T15:35:09;33.17;;;15.07;;
59263;SDS011;45030;42.720;23.344;2022-10-31T15:37:35;79.63;;;34.65;;
59263;SDS011;45030;42.720;23.344;2022-10-31T15:40:06;42.75;;;15.02;;
59263;SDS011;45030;42.720;23.344;2022-10-31T15:42:35;26.35;;;6.93;;
59263;SDS011;45030;42.720;23.344;2022-10-31T15:47:30;19.77;;;4.57;;
59263;SDS011;45030;42.720;23.344;2022-10-31T15:49:56;14.90;;;5.10;;
59263;SDS011;45030;42.720;23.344;2022-10-31T15:54:48;27.07;;;5.77;;
59263;SDS011;45030;42.720;23.344;2022-10-31T15:57:15;28.05;;;8.80;;
59263;SDS011;45030;42.720;23.344;2022-10-31T15:59:41;26.45;;;11.05;;
59263;SDS011;45030;42.720;23.344;2022-10-31T16:02:09;20.33;;;5.47;;
59263;SDS011;45030;42.720;23.344;2022-10-31T16:04:34;24.38;;;7.22;;
59263;SDS011;45030;42.720;23.344;2022-10-31T16:07:02;25.58;;;9.60;;
59263;SDS011;45030;42.720;23.344;2022-10-31T16:09:28;35.03;;;13.32;;
59263;SDS011;45030;42.720;23.344;2022-10-31T16:11:54;52.83;;;23.60;;
59263;SDS011;45030;42.720;23.344;2022-10-31T16:14:22;22.60;;;8.68;;
59263;SDS011;45030;42.720;23.344;2022-10-31T16:16:49;83.28;;;43.35;;
59263;SDS011;45030;42.720;23.344;2022-10-31T16:19:20;61.97;;;28.50;;
59263;SDS011;45030;42.720;23.344;2022-10-31T16:21:47;30.83;;;14.05;;
59263;SDS011;45030;42.720;23.344;2022-10-31T16:24:28;21.20;;;9.70;;
59263;SDS011;45030;42.720;23.344;2022-10-31T16:26:59;23.88;;;9.45;;
59263;SDS011;45030;42.720;23.344;2022-10-31T16:29:28;22.87;;;9.40;;
59263;SDS011;45030;42.720;23.344;2022-10-31T16:31:57;19.15;;;8.73;;
59263;SDS011;45030;42.720;23.344;2022-10-31T16:34:22;26.13;;;11.27;;
59263;SDS011;45030;42.720;23.344;2022-10-31T16:36:48;20.42;;;9.82;;
59263;SDS011;45030;42.720;23.344;2022-10-31T16:39:13;20.80;;;10.60;;
59263;SDS011;45030;42.720;23.344;2022-10-31T16:41:42;27.98;;;11.45;;
59263;SDS011;45030;42.720;23.344;2022-10-31T16:44:41;22.60;;;10.05;;
59263;SDS011;45030;42.720;23.344;2022-10-31T16:49:30;23.48;;;10.55;;
59263;SDS011;45030;42.720;23.344;2022-10-31T16:51:56;22.50;;;11.13;;